createdAt,value
2022-11-01T00:02:07.994Z,8.21
2022-11-01T00:07:07.870Z,8.20
2022-11-01T00:12:07.808Z,8.19
2022-11-01T00:17:07.779Z,8.24
2022-11-01T00:22:07.662Z,8.32
2022-11-01T00:27:07.612Z,8.44
2022-11-01T00:32:07.505Z,8.53
2022-11-01T00:37:07.458Z,8.62
2022-11-01T00:42:07.367Z,8.59
2022-11-01T00:47:07.309Z,8.59
2022-11-01T00:52:07.237Z,8.53
2022-11-01T00:57:07.202Z,8.67
2022-11-01T01:02:07.255Z,8.83
2022-11-01T01:07:07.044Z,9.11
2022-11-01T01:12:06.979Z,9.09
2022-11-01T01:17:06.924Z,8.88
2022-11-01T01:22:06.851Z,8.74
2022-11-01T01:27:06.789Z,8.60
2022-11-01T01:32:06.711Z,8.50
2022-11-01T01:37:06.669Z,8.44
2022-11-01T01:42:06.598Z,8.38
2022-11-01T01:47:06.531Z,8.41
2022-11-01T01:52:06.473Z,8.38
2022-11-01T01:57:06.383Z,8.35
2022-11-01T02:02:06.402Z,8.28
2022-11-01T02:07:06.259Z,8.26
2022-11-01T02:12:06.201Z,8.16
2022-11-01T02:17:08.698Z,8.21
2022-11-01T02:22:06.043Z,8.14
2022-11-01T02:27:05.972Z,8.13
2022-11-01T02:32:05.892Z,8.09
2022-11-01T02:37:05.834Z,8.09
2022-11-01T02:42:05.750Z,8.06
2022-11-01T02:47:05.729Z,8.10
2022-11-01T02:52:05.964Z,8.16
2022-11-01T02:57:05.564Z,8.13
2022-11-01T03:02:05.521Z,8.10
2022-11-01T03:07:05.424Z,7.95
2022-11-01T03:12:05.363Z,7.81
2022-11-01T03:17:05.304Z,7.84
2022-11-01T03:22:05.225Z,7.91
2022-11-01T03:27:05.155Z,7.94
2022-11-01T03:32:05.075Z,8.02
2022-11-01T03:37:05.016Z,8.14
2022-11-01T03:42:04.946Z,8.31
2022-11-01T03:47:04.876Z,8.37
2022-11-01T03:52:04.785Z,8.31
2022-11-01T03:57:04.756Z,8.26
2022-11-01T04:02:04.805Z,8.26
2022-11-01T04:07:04.598Z,8.31
2022-11-01T04:12:04.525Z,8.41
2022-11-01T04:17:04.469Z,8.41
2022-11-01T04:22:04.390Z,8.49
2022-11-01T04:27:04.328Z,8.57
2022-11-01T04:32:04.257Z,8.62
2022-11-01T04:37:04.197Z,8.59
2022-11-01T04:42:04.130Z,8.65
2022-11-01T04:47:04.068Z,8.72
2022-11-01T04:52:04.013Z,8.72
2022-11-01T04:57:03.950Z,8.63
2022-11-01T05:02:03.940Z,8.49
2022-11-01T05:07:03.819Z,8.62
2022-11-01T05:12:03.762Z,8.50
2022-11-01T05:17:03.718Z,8.57
2022-11-01T05:22:03.618Z,8.56
2022-11-01T05:27:03.560Z,8.57
2022-11-01T05:32:03.504Z,8.38
2022-11-01T05:37:03.440Z,8.37
2022-11-01T05:42:03.360Z,8.26
2022-11-01T05:47:03.311Z,8.21
2022-11-01T05:52:03.222Z,8.21
2022-11-01T05:57:03.159Z,8.20
2022-11-01T06:02:03.252Z,8.16
2022-11-01T06:07:03.041Z,8.17
2022-11-01T06:12:02.996Z,8.26
2022-11-01T06:17:02.896Z,8.32
2022-11-01T06:22:02.861Z,8.39
2022-11-01T06:27:02.785Z,8.47
2022-11-01T06:32:02.703Z,8.57
2022-11-01T06:37:02.664Z,8.59
2022-11-01T06:42:02.584Z,8.52
2022-11-01T06:47:02.526Z,8.49
2022-11-01T06:52:02.448Z,8.49
2022-11-01T06:57:02.397Z,8.52
2022-11-01T07:02:02.539Z,8.62
2022-11-01T07:07:02.275Z,8.71
2022-11-01T07:12:02.195Z,8.89
2022-11-01T07:17:02.146Z,9.08
2022-11-01T07:22:02.055Z,9.26
2022-11-01T07:27:02.016Z,9.48
2022-11-01T07:32:02.015Z,9.73
2022-11-01T07:37:01.876Z,10.02
2022-11-01T07:42:01.837Z,10.39
2022-11-01T07:47:01.764Z,10.55
2022-11-01T07:52:02.980Z,10.83
2022-11-01T07:57:01.647Z,11.01
2022-11-01T08:02:05.340Z,11.13
2022-11-01T08:07:02.511Z,11.28
2022-11-01T08:12:01.435Z,11.43
2022-11-01T08:17:01.389Z,11.55
2022-11-01T08:22:01.319Z,11.55
2022-11-01T08:27:01.278Z,11.62
2022-11-01T08:32:01.220Z,11.84
2022-11-01T08:37:01.151Z,11.95
2022-11-01T08:42:01.109Z,12.08
2022-11-01T08:47:01.000Z,12.22
2022-11-01T08:52:00.941Z,12.23
2022-11-01T08:57:00.895Z,12.41
2022-11-01T09:02:00.918Z,12.66
2022-11-01T09:07:00.769Z,12.88
2022-11-01T09:12:00.692Z,13.02
2022-11-01T09:17:00.644Z,13.21
2022-11-01T09:22:00.580Z,13.36
2022-11-01T09:27:00.524Z,13.47
2022-11-01T09:32:00.484Z,13.72
2022-11-01T09:37:00.395Z,13.91
2022-11-01T09:42:00.325Z,14.03
2022-11-01T09:47:02.488Z,14.40
2022-11-01T09:52:00.216Z,14.67
2022-11-01T09:57:00.150Z,15.11
2022-11-01T10:02:00.152Z,15.30
2022-11-01T10:07:00.007Z,15.41
2022-11-01T10:11:59.958Z,15.52
2022-11-01T10:16:59.897Z,15.65
2022-11-01T10:21:59.820Z,15.59
2022-11-01T10:26:59.770Z,15.66
2022-11-01T10:31:59.711Z,15.68
2022-11-01T10:36:59.650Z,15.72
2022-11-01T10:41:59.571Z,15.80
2022-11-01T10:46:59.524Z,15.91
2022-11-01T10:51:59.443Z,16.06
2022-11-01T10:56:59.407Z,16.21
2022-11-01T11:01:59.407Z,16.26
2022-11-01T11:06:59.263Z,16.18
2022-11-01T11:11:59.215Z,16.18
2022-11-01T11:16:59.137Z,16.22
2022-11-01T11:21:59.061Z,16.28
2022-11-01T11:26:59.007Z,16.28
2022-11-01T11:31:58.957Z,16.26
2022-11-01T11:36:58.880Z,16.24
2022-11-01T11:41:58.810Z,16.28
2022-11-01T11:46:58.749Z,16.36
2022-11-01T11:51:58.681Z,16.59
2022-11-01T11:56:58.622Z,16.72
2022-11-01T12:01:58.638Z,16.83
2022-11-01T12:06:58.509Z,16.84
2022-11-01T12:11:58.435Z,16.92
2022-11-01T12:16:58.384Z,16.80
2022-11-01T12:21:58.306Z,16.54
2022-11-01T12:26:58.274Z,16.49
2022-11-01T12:31:58.235Z,16.43
2022-11-01T12:36:58.127Z,16.36
2022-11-01T12:41:58.066Z,16.29
2022-11-01T12:46:58.018Z,15.95
2022-11-01T12:51:58.045Z,15.84
2022-11-01T12:56:57.891Z,15.78
2022-11-01T13:01:57.955Z,15.68
2022-11-01T13:06:57.749Z,15.62
2022-11-01T13:11:57.680Z,15.52
2022-11-01T13:16:57.622Z,15.41
2022-11-01T13:21:57.558Z,15.32
2022-11-01T13:26:57.501Z,15.14
2022-11-01T13:31:57.466Z,14.97
2022-11-01T13:36:57.355Z,14.97
2022-11-01T13:41:57.304Z,15.08
2022-11-01T13:46:57.279Z,15.10
2022-11-01T13:51:57.178Z,15.11
2022-11-01T13:56:57.157Z,15.11
2022-11-01T14:01:57.136Z,15.14
2022-11-01T14:06:59.990Z,15.01
2022-11-01T14:11:57.999Z,14.87
2022-11-01T14:16:56.879Z,14.82
2022-11-01T14:21:56.821Z,14.92
2022-11-01T14:26:56.769Z,15.07
2022-11-01T14:31:56.701Z,15.15
2022-11-01T14:36:56.650Z,15.14
2022-11-01T14:41:56.697Z,15.03
2022-11-01T14:46:56.520Z,15.03
2022-11-01T14:51:56.485Z,15.17
2022-11-01T14:56:56.395Z,15.33
2022-11-01T15:02:02.154Z,15.38
2022-11-01T15:06:57.274Z,15.35
2022-11-01T15:11:56.206Z,15.35
2022-11-01T15:16:56.174Z,15.15
2022-11-01T15:21:56.087Z,15.01
2022-11-01T15:26:56.033Z,14.74
2022-11-01T15:31:55.976Z,14.61
2022-11-01T15:36:55.907Z,14.48
2022-11-01T15:41:55.846Z,14.52
2022-11-01T15:46:55.799Z,14.45
2022-11-01T15:51:55.718Z,14.38
2022-11-01T15:56:55.660Z,14.30
2022-11-01T16:01:57.519Z,14.23
2022-11-01T16:06:56.543Z,14.15
2022-11-01T16:11:55.474Z,13.96
2022-11-01T16:16:55.422Z,13.83
2022-11-01T16:21:55.351Z,13.78
2022-11-01T16:26:55.284Z,13.73
2022-11-01T16:31:55.240Z,13.68
2022-11-01T16:36:55.164Z,13.60
2022-11-01T16:41:55.087Z,13.61
2022-11-01T16:46:55.028Z,13.55
2022-11-01T16:51:54.976Z,13.60
2022-11-01T16:56:54.896Z,13.54
2022-11-01T17:01:54.901Z,13.58
2022-11-01T17:06:54.770Z,13.47
2022-11-01T17:11:54.743Z,13.35
2022-11-01T17:16:54.659Z,13.32
2022-11-01T17:21:54.593Z,13.32
2022-11-01T17:26:54.520Z,13.39
2022-11-01T17:31:54.462Z,13.38
2022-11-01T17:36:54.412Z,13.32
2022-11-01T17:41:54.341Z,13.27
2022-11-01T17:46:54.272Z,13.23
2022-11-01T17:51:55.122Z,13.13
2022-11-01T17:56:54.150Z,12.98
2022-11-01T18:01:54.188Z,12.80
2022-11-01T18:06:54.024Z,12.73
2022-11-01T18:11:53.972Z,12.79
2022-11-01T18:16:53.915Z,12.76
2022-11-01T18:21:53.847Z,12.72
2022-11-01T18:26:53.796Z,12.76
2022-11-01T18:31:53.727Z,12.71
2022-11-01T18:36:53.658Z,12.80
2022-11-01T18:41:53.595Z,12.84
2022-11-01T18:46:53.536Z,12.91
2022-11-01T18:51:53.477Z,12.88
2022-11-01T18:56:53.409Z,12.87
2022-11-01T19:01:53.409Z,12.81
2022-11-01T19:06:53.289Z,12.71
2022-11-01T19:11:53.226Z,12.66
2022-11-01T19:16:53.160Z,12.69
2022-11-01T19:21:53.101Z,12.71
2022-11-01T19:26:53.040Z,12.73
2022-11-01T19:31:53.001Z,12.80
2022-11-01T19:36:52.934Z,12.71
2022-11-01T19:41:52.862Z,12.66
2022-11-01T19:46:52.792Z,12.79
2022-11-01T19:51:52.733Z,12.86
2022-11-01T19:56:52.672Z,12.80
2022-11-01T20:01:52.670Z,12.77
2022-11-01T20:06:52.536Z,12.73
2022-11-01T20:11:52.502Z,12.77
2022-11-01T20:16:52.428Z,12.73
2022-11-01T20:21:52.374Z,12.77
2022-11-01T20:26:52.303Z,12.80
2022-11-01T20:31:52.248Z,12.88
2022-11-01T20:37:14.975Z,13.01
2022-11-01T20:41:53.116Z,13.01
2022-11-01T20:46:52.050Z,13.09
2022-11-01T20:51:51.999Z,12.99
2022-11-01T20:56:51.920Z,13.05
2022-11-01T21:01:51.993Z,13.01
2022-11-01T21:06:51.800Z,13.08
2022-11-01T21:11:51.759Z,13.17
2022-11-01T21:16:51.680Z,13.09
2022-11-01T21:21:51.620Z,13.01
2022-11-01T21:26:55.860Z,12.73
2022-11-01T21:31:51.494Z,12.63
2022-11-01T21:36:51.432Z,12.53
2022-11-01T21:41:51.364Z,12.48
2022-11-01T21:46:51.303Z,12.33
2022-11-01T21:51:51.254Z,12.17
2022-11-01T21:56:51.181Z,12.03
2022-11-01T22:01:51.225Z,11.88
2022-11-01T22:06:51.054Z,11.73
2022-11-01T22:11:51.004Z,11.58
2022-11-01T22:16:50.926Z,11.36
2022-11-01T22:21:50.875Z,11.16
2022-11-01T22:26:50.818Z,10.90
2022-11-01T22:31:50.746Z,10.79
2022-11-01T22:36:50.682Z,10.72
2022-11-01T22:41:50.626Z,10.49
2022-11-01T22:46:55.167Z,10.36
2022-11-01T22:51:51.490Z,10.23
2022-11-01T22:56:50.438Z,10.16
2022-11-01T23:01:50.480Z,10.08
2022-11-01T23:06:50.340Z,9.98
2022-11-01T23:11:50.232Z,9.84
2022-11-01T23:16:50.180Z,9.78
2022-11-01T23:21:50.120Z,9.80
2022-11-01T23:26:50.070Z,9.83
2022-11-01T23:31:49.999Z,9.83
2022-11-01T23:36:49.930Z,9.83
2022-11-01T23:41:49.885Z,9.78
2022-11-01T23:46:49.805Z,9.75
2022-11-01T23:51:49.742Z,9.77
2022-11-01T23:56:49.681Z,9.75
